sensor_id;sensor_type;location;lat;lon;timestamp;temperature;humidity
14192;DHT22;7177;48.572;7.838;2023-07-13T00:01:57;20.20;99.90
14192;DHT22;7177;48.572;7.838;2023-07-13T00:04:24;20.10;99.90
14192;DHT22;7177;48.572;7.838;2023-07-13T00:06:50;20.10;99.90
14192;DHT22;7177;48.572;7.838;2023-07-13T00:09:17;20.00;99.90
14192;DHT22;7177;48.572;7.838;2023-07-13T00:11:44;19.90;99.90
14192;DHT22;7177;48.572;7.838;2023-07-13T00:14:10;19.80;99.90
14192;DHT22;7177;48.572;7.838;2023-07-13T00:16:37;19.80;99.90
14192;DHT22;7177;48.572;7.838;2023-07-13T00:19:04;19.80;99.90
14192;DHT22;7177;48.572;7.838;2023-07-13T00:21:30;19.80;99.90
14192;DHT22;7177;48.572;7.838;2023-07-13T00:23:56;19.70;99.90
14192;DHT22;7177;48.572;7.838;2023-07-13T00:26:21;19.70;99.90
14192;DHT22;7177;48.572;7.838;2023-07-13T00:28:47;19.70;99.90
14192;DHT22;7177;48.572;7.838;2023-07-13T00:31:13;19.60;99.90
14192;DHT22;7177;48.572;7.838;2023-07-13T00:33:42;19.50;99.90
14192;DHT22;7177;48.572;7.838;2023-07-13T00:36:08;19.30;99.90
14192;DHT22;7177;48.572;7.838;2023-07-13T00:38:34;19.30;99.90
14192;DHT22;7177;48.572;7.838;2023-07-13T00:41:00;19.20;99.90
14192;DHT22;7177;48.572;7.838;2023-07-13T00:43:27;19.20;99.90
14192;DHT22;7177;48.572;7.838;2023-07-13T00:48:21;19.10;99.90
14192;DHT22;7177;48.572;7.838;2023-07-13T00:50:50;19.20;99.90
14192;DHT22;7177;48.572;7.838;2023-07-13T00:53:17;19.10;99.90
14192;DHT22;7177;48.572;7.838;2023-07-13T00:55:43;19.00;99.90
14192;DHT22;7177;48.572;7.838;2023-07-13T00:58:09;18.90;99.90
14192;DHT22;7177;48.572;7.838;2023-07-13T01:00:36;18.80;99.90
14192;DHT22;7177;48.572;7.838;2023-07-13T01:03:03;18.80;99.90
14192;DHT22;7177;48.572;7.838;2023-07-13T01:05:31;18.70;99.90
14192;DHT22;7177;48.572;7.838;2023-07-13T01:07:57;18.50;99.90
14192;DHT22;7177;48.572;7.838;2023-07-13T01:10:25;18.40;99.90
14192;DHT22;7177;48.572;7.838;2023-07-13T01:12:50;18.20;99.90
14192;DHT22;7177;48.572;7.838;2023-07-13T01:18:03;18.10;99.90
14192;DHT22;7177;48.572;7.838;2023-07-13T01:20:30;18.10;99.90
14192;DHT22;7177;48.572;7.838;2023-07-13T01:22:55;18.00;99.90
14192;DHT22;7177;48.572;7.838;2023-07-13T01:25:21;17.90;99.90
14192;DHT22;7177;48.572;7.838;2023-07-13T01:27:46;17.90;99.90
14192;DHT22;7177;48.572;7.838;2023-07-13T01:30:12;18.00;99.90
14192;DHT22;7177;48.572;7.838;2023-07-13T01:32:38;17.90;99.90
14192;DHT22;7177;48.572;7.838;2023-07-13T01:35:07;18.00;99.90
14192;DHT22;7177;48.572;7.838;2023-07-13T01:37:32;17.90;99.90
14192;DHT22;7177;48.572;7.838;2023-07-13T01:40:04;17.80;99.90
14192;DHT22;7177;48.572;7.838;2023-07-13T01:42:30;17.60;99.90
14192;DHT22;7177;48.572;7.838;2023-07-13T01:44:56;17.50;99.90
14192;DHT22;7177;48.572;7.838;2023-07-13T01:47:23;17.60;99.90
14192;DHT22;7177;48.572;7.838;2023-07-13T01:49:48;17.70;99.90
14192;DHT22;7177;48.572;7.838;2023-07-13T01:52:15;17.80;99.90
14192;DHT22;7177;48.572;7.838;2023-07-13T01:54:40;17.90;99.90
14192;DHT22;7177;48.572;7.838;2023-07-13T01:57:06;17.90;99.90
14192;DHT22;7177;48.572;7.838;2023-07-13T01:59:31;18.00;99.90
14192;DHT22;7177;48.572;7.838;2023-07-13T02:01:58;18.00;99.90
14192;DHT22;7177;48.572;7.838;2023-07-13T02:04:24;18.10;99.90
14192;DHT22;7177;48.572;7.838;2023-07-13T02:06:49;18.00;99.90
14192;DHT22;7177;48.572;7.838;2023-07-13T02:09:15;18.00;99.90
14192;DHT22;7177;48.572;7.838;2023-07-13T02:11:40;18.00;99.90
14192;DHT22;7177;48.572;7.838;2023-07-13T02:14:06;17.90;99.90
14192;DHT22;7177;48.572;7.838;2023-07-13T02:16:31;17.90;99.90
14192;DHT22;7177;48.572;7.838;2023-07-13T02:18:57;17.90;99.90
14192;DHT22;7177;48.572;7.838;2023-07-13T02:21:23;17.80;99.90
14192;DHT22;7177;48.572;7.838;2023-07-13T02:23:49;17.80;99.90
14192;DHT22;7177;48.572;7.838;2023-07-13T02:26:15;17.80;99.90
14192;DHT22;7177;48.572;7.838;2023-07-13T02:28:41;17.60;99.90
14192;DHT22;7177;48.572;7.838;2023-07-13T02:31:15;17.40;99.90
14192;DHT22;7177;48.572;7.838;2023-07-13T02:33:41;17.40;99.90
14192;DHT22;7177;48.572;7.838;2023-07-13T02:36:07;17.50;99.90
14192;DHT22;7177;48.572;7.838;2023-07-13T02:38:34;17.60;99.90
14192;DHT22;7177;48.572;7.838;2023-07-13T02:41:01;17.60;99.90
14192;DHT22;7177;48.572;7.838;2023-07-13T02:43:27;17.60;99.90
14192;DHT22;7177;48.572;7.838;2023-07-13T02:45:52;17.60;99.90
14192;DHT22;7177;48.572;7.838;2023-07-13T02:48:18;17.60;99.90
14192;DHT22;7177;48.572;7.838;2023-07-13T02:50:45;17.50;99.90
14192;DHT22;7177;48.572;7.838;2023-07-13T02:53:10;17.50;99.90
14192;DHT22;7177;48.572;7.838;2023-07-13T02:55:36;17.40;99.90
14192;DHT22;7177;48.572;7.838;2023-07-13T02:58:02;17.50;99.90
14192;DHT22;7177;48.572;7.838;2023-07-13T03:00:27;17.50;99.90
14192;DHT22;7177;48.572;7.838;2023-07-13T03:02:53;17.50;99.90
14192;DHT22;7177;48.572;7.838;2023-07-13T03:05:22;17.50;99.90
14192;DHT22;7177;48.572;7.838;2023-07-13T03:07:47;17.40;99.90
14192;DHT22;7177;48.572;7.838;2023-07-13T03:10:13;17.10;99.90
14192;DHT22;7177;48.572;7.838;2023-07-13T03:12:39;17.10;99.90
14192;DHT22;7177;48.572;7.838;2023-07-13T03:15:04;16.90;99.90
14192;DHT22;7177;48.572;7.838;2023-07-13T03:17:30;16.80;99.90
14192;DHT22;7177;48.572;7.838;2023-07-13T03:19:56;16.70;99.90
14192;DHT22;7177;48.572;7.838;2023-07-13T03:22:22;16.70;99.90
14192;DHT22;7177;48.572;7.838;2023-07-13T03:24:47;16.80;99.90
14192;DHT22;7177;48.572;7.838;2023-07-13T03:27:15;16.80;99.90
14192;DHT22;7177;48.572;7.838;2023-07-13T03:29:40;16.70;99.90
14192;DHT22;7177;48.572;7.838;2023-07-13T03:32:06;16.70;99.90
14192;DHT22;7177;48.572;7.838;2023-07-13T03:34:32;16.70;99.90
14192;DHT22;7177;48.572;7.838;2023-07-13T03:36:58;16.80;99.90
14192;DHT22;7177;48.572;7.838;2023-07-13T03:39:23;16.80;99.90
14192;DHT22;7177;48.572;7.838;2023-07-13T03:41:49;16.80;99.90
14192;DHT22;7177;48.572;7.838;2023-07-13T03:44:16;16.80;99.90
14192;DHT22;7177;48.572;7.838;2023-07-13T03:46:42;16.90;99.90
14192;DHT22;7177;48.572;7.838;2023-07-13T03:49:10;16.90;99.90
14192;DHT22;7177;48.572;7.838;2023-07-13T03:51:35;17.00;99.90
14192;DHT22;7177;48.572;7.838;2023-07-13T03:54:01;17.70;99.90
14192;DHT22;7177;48.572;7.838;2023-07-13T03:56:28;18.20;99.90
14192;DHT22;7177;48.572;7.838;2023-07-13T03:58:54;18.70;99.90
14192;DHT22;7177;48.572;7.838;2023-07-13T04:01:21;19.20;99.90
14192;DHT22;7177;48.572;7.838;2023-07-13T04:06:21;19.40;99.90
14192;DHT22;7177;48.572;7.838;2023-07-13T04:08:54;19.90;99.90
14192;DHT22;7177;48.572;7.838;2023-07-13T04:11:23;20.10;99.90
14192;DHT22;7177;48.572;7.838;2023-07-13T04:13:49;20.10;99.90
14192;DHT22;7177;48.572;7.838;2023-07-13T04:16:16;20.10;99.90
14192;DHT22;7177;48.572;7.838;2023-07-13T04:18:42;20.20;99.90
14192;DHT22;7177;48.572;7.838;2023-07-13T04:21:08;20.20;99.90
14192;DHT22;7177;48.572;7.838;2023-07-13T04:23:35;19.90;99.90
14192;DHT22;7177;48.572;7.838;2023-07-13T04:26:00;19.60;99.90
14192;DHT22;7177;48.572;7.838;2023-07-13T04:28:26;19.30;99.90
14192;DHT22;7177;48.572;7.838;2023-07-13T04:30:53;18.90;99.90
14192;DHT22;7177;48.572;7.838;2023-07-13T04:33:19;18.70;99.90
14192;DHT22;7177;48.572;7.838;2023-07-13T04:35:51;18.80;99.90
14192;DHT22;7177;48.572;7.838;2023-07-13T04:38:26;19.10;99.90
14192;DHT22;7177;48.572;7.838;2023-07-13T04:40:58;19.20;99.90
14192;DHT22;7177;48.572;7.838;2023-07-13T04:43:24;19.00;99.90
14192;DHT22;7177;48.572;7.838;2023-07-13T04:45:54;18.60;99.90
14192;DHT22;7177;48.572;7.838;2023-07-13T04:48:20;18.60;99.90
14192;DHT22;7177;48.572;7.838;2023-07-13T04:50:46;18.60;99.90
14192;DHT22;7177;48.572;7.838;2023-07-13T04:53:12;18.60;99.90
14192;DHT22;7177;48.572;7.838;2023-07-13T04:55:38;18.40;99.90
14192;DHT22;7177;48.572;7.838;2023-07-13T04:58:05;18.20;99.90
14192;DHT22;7177;48.572;7.838;2023-07-13T05:00:31;18.40;99.90
14192;DHT22;7177;48.572;7.838;2023-07-13T05:02:57;18.60;99.90
14192;DHT22;7177;48.572;7.838;2023-07-13T05:05:24;18.80;99.90
14192;DHT22;7177;48.572;7.838;2023-07-13T05:07:50;18.80;99.90
14192;DHT22;7177;48.572;7.838;2023-07-13T05:10:15;19.00;99.90
14192;DHT22;7177;48.572;7.838;2023-07-13T05:12:41;18.90;99.90
14192;DHT22;7177;48.572;7.838;2023-07-13T05:15:07;18.80;99.90
14192;DHT22;7177;48.572;7.838;2023-07-13T05:17:33;18.90;99.90
14192;DHT22;7177;48.572;7.838;2023-07-13T05:19:58;19.10;99.90
14192;DHT22;7177;48.572;7.838;2023-07-13T05:22:24;19.10;99.90
14192;DHT22;7177;48.572;7.838;2023-07-13T05:24:50;19.40;99.90
14192;DHT22;7177;48.572;7.838;2023-07-13T05:27:15;19.60;99.90
14192;DHT22;7177;48.572;7.838;2023-07-13T05:29:41;19.90;99.90
14192;DHT22;7177;48.572;7.838;2023-07-13T05:32:06;20.20;99.90
14192;DHT22;7177;48.572;7.838;2023-07-13T05:34:32;20.60;99.90
14192;DHT22;7177;48.572;7.838;2023-07-13T05:41:50;20.90;99.90
14192;DHT22;7177;48.572;7.838;2023-07-13T05:46:41;21.10;99.90
14192;DHT22;7177;48.572;7.838;2023-07-13T05:51:32;21.10;99.90
14192;DHT22;7177;48.572;7.838;2023-07-13T05:53:58;21.10;99.90
14192;DHT22;7177;48.572;7.838;2023-07-13T06:03:43;20.80;99.90
14192;DHT22;7177;48.572;7.838;2023-07-13T06:06:09;21.10;99.90
14192;DHT22;7177;48.572;7.838;2023-07-13T06:08:35;21.50;99.90
14192;DHT22;7177;48.572;7.838;2023-07-13T06:11:06;21.90;99.90
14192;DHT22;7177;48.572;7.838;2023-07-13T06:13:32;21.90;99.90
14192;DHT22;7177;48.572;7.838;2023-07-13T06:15:59;22.00;99.90
14192;DHT22;7177;48.572;7.838;2023-07-13T06:18:24;22.30;99.90
14192;DHT22;7177;48.572;7.838;2023-07-13T06:20:50;22.40;99.90
14192;DHT22;7177;48.572;7.838;2023-07-13T06:23:15;22.50;99.90
14192;DHT22;7177;48.572;7.838;2023-07-13T06:25:41;22.70;99.90
14192;DHT22;7177;48.572;7.838;2023-07-13T06:28:06;22.80;99.90
14192;DHT22;7177;48.572;7.838;2023-07-13T06:30:32;22.80;99.90
14192;DHT22;7177;48.572;7.838;2023-07-13T06:32:57;23.00;99.90
14192;DHT22;7177;48.572;7.838;2023-07-13T06:35:23;23.00;99.90
14192;DHT22;7177;48.572;7.838;2023-07-13T06:37:48;22.80;99.90
14192;DHT22;7177;48.572;7.838;2023-07-13T06:40:14;23.00;99.90
14192;DHT22;7177;48.572;7.838;2023-07-13T06:42:39;23.10;99.90
14192;DHT22;7177;48.572;7.838;2023-07-13T06:45:05;23.30;99.90
14192;DHT22;7177;48.572;7.838;2023-07-13T06:47:31;23.40;99.90
14192;DHT22;7177;48.572;7.838;2023-07-13T06:49:57;23.70;99.90
14192;DHT22;7177;48.572;7.838;2023-07-13T06:52:22;23.80;99.90
14192;DHT22;7177;48.572;7.838;2023-07-13T06:54:48;24.00;99.90
14192;DHT22;7177;48.572;7.838;2023-07-13T06:57:13;24.20;99.90
14192;DHT22;7177;48.572;7.838;2023-07-13T06:59:39;24.20;99.90
14192;DHT22;7177;48.572;7.838;2023-07-13T07:02:05;24.40;99.90
14192;DHT22;7177;48.572;7.838;2023-07-13T07:04:31;24.60;99.90
14192;DHT22;7177;48.572;7.838;2023-07-13T07:06:56;24.60;99.90
14192;DHT22;7177;48.572;7.838;2023-07-13T07:09:22;24.20;99.90
14192;DHT22;7177;48.572;7.838;2023-07-13T07:11:48;24.30;99.90
14192;DHT22;7177;48.572;7.838;2023-07-13T07:14:13;24.60;99.90
14192;DHT22;7177;48.572;7.838;2023-07-13T07:16:39;24.80;99.90
14192;DHT22;7177;48.572;7.838;2023-07-13T07:19:04;25.10;99.90
14192;DHT22;7177;48.572;7.838;2023-07-13T07:23:56;25.30;99.90
14192;DHT22;7177;48.572;7.838;2023-07-13T07:26:22;25.20;99.90
14192;DHT22;7177;48.572;7.838;2023-07-13T07:28:48;25.60;99.50
14192;DHT22;7177;48.572;7.838;2023-07-13T07:33:39;25.80;98.40
14192;DHT22;7177;48.572;7.838;2023-07-13T07:36:05;26.00;98.10
14192;DHT22;7177;48.572;7.838;2023-07-13T07:38:30;26.50;96.80
14192;DHT22;7177;48.572;7.838;2023-07-13T07:40:56;26.50;97.80
14192;DHT22;7177;48.572;7.838;2023-07-13T07:43:21;26.70;97.70
14192;DHT22;7177;48.572;7.838;2023-07-13T07:45:47;26.80;97.20
14192;DHT22;7177;48.572;7.838;2023-07-13T07:48:13;26.80;93.90
14192;DHT22;7177;48.572;7.838;2023-07-13T07:50:38;26.50;94.40
14192;DHT22;7177;48.572;7.838;2023-07-13T07:53:05;26.50;94.70
14192;DHT22;7177;48.572;7.838;2023-07-13T07:55:33;26.50;95.00
14192;DHT22;7177;48.572;7.838;2023-07-13T07:58:00;26.20;96.00
14192;DHT22;7177;48.572;7.838;2023-07-13T08:00:25;26.30;96.00
14192;DHT22;7177;48.572;7.838;2023-07-13T08:02:51;26.40;94.60
14192;DHT22;7177;48.572;7.838;2023-07-13T08:05:17;26.40;96.10
14192;DHT22;7177;48.572;7.838;2023-07-13T08:07:43;26.80;96.50
14192;DHT22;7177;48.572;7.838;2023-07-13T08:10:09;26.80;96.60
14192;DHT22;7177;48.572;7.838;2023-07-13T08:12:35;26.90;94.50
14192;DHT22;7177;48.572;7.838;2023-07-13T08:15:02;26.50;94.90
14192;DHT22;7177;48.572;7.838;2023-07-13T08:17:27;26.50;95.30
14192;DHT22;7177;48.572;7.838;2023-07-13T08:19:53;26.60;94.40
14192;DHT22;7177;48.572;7.838;2023-07-13T08:22:18;26.70;93.10
14192;DHT22;7177;48.572;7.838;2023-07-13T08:24:44;26.80;93.00
14192;DHT22;7177;48.572;7.838;2023-07-13T08:27:13;26.90;91.30
14192;DHT22;7177;48.572;7.838;2023-07-13T08:29:39;27.00;90.00
14192;DHT22;7177;48.572;7.838;2023-07-13T08:32:06;27.10;88.90
14192;DHT22;7177;48.572;7.838;2023-07-13T08:34:35;27.10;89.50
14192;DHT22;7177;48.572;7.838;2023-07-13T08:37:01;27.30;87.10
14192;DHT22;7177;48.572;7.838;2023-07-13T08:39:27;27.90;88.90
14192;DHT22;7177;48.572;7.838;2023-07-13T08:41:58;28.40;87.70
14192;DHT22;7177;48.572;7.838;2023-07-13T08:44:40;28.60;84.80
14192;DHT22;7177;48.572;7.838;2023-07-13T08:47:09;28.20;86.70
14192;DHT22;7177;48.572;7.838;2023-07-13T08:49:37;28.30;85.50
14192;DHT22;7177;48.572;7.838;2023-07-13T08:52:21;28.40;85.80
14192;DHT22;7177;48.572;7.838;2023-07-13T08:54:51;28.60;83.90
14192;DHT22;7177;48.572;7.838;2023-07-13T08:57:24;28.30;78.90
14192;DHT22;7177;48.572;7.838;2023-07-13T08:59:53;27.80;80.10
14192;DHT22;7177;48.572;7.838;2023-07-13T09:05:26;27.60;81.80
14192;DHT22;7177;48.572;7.838;2023-07-13T09:11:00;28.20;82.00
14192;DHT22;7177;48.572;7.838;2023-07-13T09:16:15;29.70;78.10
14192;DHT22;7177;48.572;7.838;2023-07-13T09:18:45;30.00;76.60
14192;DHT22;7177;48.572;7.838;2023-07-13T09:21:18;30.20;73.50
14192;DHT22;7177;48.572;7.838;2023-07-13T09:23:47;30.10;74.80
14192;DHT22;7177;48.572;7.838;2023-07-13T09:26:21;30.30;73.20
14192;DHT22;7177;48.572;7.838;2023-07-13T09:29:01;29.90;74.00
14192;DHT22;7177;48.572;7.838;2023-07-13T09:31:34;29.80;74.00
14192;DHT22;7177;48.572;7.838;2023-07-13T09:34:00;29.60;78.00
14192;DHT22;7177;48.572;7.838;2023-07-13T09:41:49;30.00;78.30
14192;DHT22;7177;48.572;7.838;2023-07-13T09:44:28;29.70;78.10
14192;DHT22;7177;48.572;7.838;2023-07-13T09:46:56;29.80;78.70
14192;DHT22;7177;48.572;7.838;2023-07-13T09:49:34;29.80;77.60
14192;DHT22;7177;48.572;7.838;2023-07-13T09:52:06;29.90;75.50
14192;DHT22;7177;48.572;7.838;2023-07-13T09:54:36;29.90;74.20
14192;DHT22;7177;48.572;7.838;2023-07-13T09:57:08;30.00;75.50
14192;DHT22;7177;48.572;7.838;2023-07-13T09:59:41;30.60;76.40
14192;DHT22;7177;48.572;7.838;2023-07-13T10:02:29;31.20;73.20
14192;DHT22;7177;48.572;7.838;2023-07-13T10:07:25;31.00;73.20
14192;DHT22;7177;48.572;7.838;2023-07-13T10:09:55;30.60;74.80
14192;DHT22;7177;48.572;7.838;2023-07-13T10:12:22;30.90;74.00
14192;DHT22;7177;48.572;7.838;2023-07-13T10:14:57;31.00;71.90
14192;DHT22;7177;48.572;7.838;2023-07-13T10:17:29;30.30;72.50
14192;DHT22;7177;48.572;7.838;2023-07-13T10:20:06;29.50;72.10
14192;DHT22;7177;48.572;7.838;2023-07-13T10:25:24;30.10;76.70
14192;DHT22;7177;48.572;7.838;2023-07-13T10:27:52;31.20;73.90
14192;DHT22;7177;48.572;7.838;2023-07-13T10:30:23;32.20;68.10
14192;DHT22;7177;48.572;7.838;2023-07-13T10:32:51;32.80;67.60
14192;DHT22;7177;48.572;7.838;2023-07-13T10:35:19;32.60;60.70
14192;DHT22;7177;48.572;7.838;2023-07-13T10:37:57;31.50;63.40
14192;DHT22;7177;48.572;7.838;2023-07-13T10:40:43;30.70;66.30
14192;DHT22;7177;48.572;7.838;2023-07-13T10:43:39;31.00;68.90
14192;DHT22;7177;48.572;7.838;2023-07-13T10:46:08;31.80;67.20
14192;DHT22;7177;48.572;7.838;2023-07-13T10:48:35;31.80;66.70
14192;DHT22;7177;48.572;7.838;2023-07-13T10:51:03;31.50;68.70
14192;DHT22;7177;48.572;7.838;2023-07-13T10:53:33;31.00;68.50
14192;DHT22;7177;48.572;7.838;2023-07-13T10:56:01;30.70;70.20
14192;DHT22;7177;48.572;7.838;2023-07-13T10:58:38;30.90;68.10
14192;DHT22;7177;48.572;7.838;2023-07-13T11:01:13;31.00;68.30
14192;DHT22;7177;48.572;7.838;2023-07-13T11:06:29;31.70;67.20
14192;DHT22;7177;48.572;7.838;2023-07-13T11:11:56;32.90;65.30
14192;DHT22;7177;48.572;7.838;2023-07-13T11:14:42;32.70;61.00
14192;DHT22;7177;48.572;7.838;2023-07-13T11:22:49;31.00;65.30
14192;DHT22;7177;48.572;7.838;2023-07-13T11:25:28;31.30;61.10
14192;DHT22;7177;48.572;7.838;2023-07-13T11:33:22;33.00;63.40
14192;DHT22;7177;48.572;7.838;2023-07-13T11:41:00;32.10;61.90
14192;DHT22;7177;48.572;7.838;2023-07-13T11:43:28;32.40;62.30
14192;DHT22;7177;48.572;7.838;2023-07-13T11:45:54;32.00;63.50
14192;DHT22;7177;48.572;7.838;2023-07-13T11:48:29;31.90;62.30
14192;DHT22;7177;48.572;7.838;2023-07-13T11:50:59;31.70;60.50
14192;DHT22;7177;48.572;7.838;2023-07-13T11:53:28;31.30;61.40
14192;DHT22;7177;48.572;7.838;2023-07-13T11:55:55;30.60;62.50
14192;DHT22;7177;48.572;7.838;2023-07-13T11:58:23;29.80;64.50
14192;DHT22;7177;48.572;7.838;2023-07-13T12:00:50;29.00;65.90
14192;DHT22;7177;48.572;7.838;2023-07-13T12:03:20;28.50;68.10
14192;DHT22;7177;48.572;7.838;2023-07-13T12:05:56;28.10;68.60
14192;DHT22;7177;48.572;7.838;2023-07-13T12:08:22;27.80;68.30
14192;DHT22;7177;48.572;7.838;2023-07-13T12:10:48;27.70;69.50
14192;DHT22;7177;48.572;7.838;2023-07-13T12:13:21;27.70;69.30
14192;DHT22;7177;48.572;7.838;2023-07-13T12:15:46;27.70;69.00
14192;DHT22;7177;48.572;7.838;2023-07-13T12:18:18;27.70;69.60
14192;DHT22;7177;48.572;7.838;2023-07-13T12:20:45;27.70;69.30
14192;DHT22;7177;48.572;7.838;2023-07-13T12:23:24;28.00;67.10
14192;DHT22;7177;48.572;7.838;2023-07-13T12:25:51;28.70;67.20
14192;DHT22;7177;48.572;7.838;2023-07-13T12:28:33;29.60;66.00
14192;DHT22;7177;48.572;7.838;2023-07-13T12:31:02;30.60;62.50
14192;DHT22;7177;48.572;7.838;2023-07-13T12:33:29;31.70;59.20
14192;DHT22;7177;48.572;7.838;2023-07-13T12:35:57;32.30;61.20
14192;DHT22;7177;48.572;7.838;2023-07-13T12:38:25;32.70;60.10
14192;DHT22;7177;48.572;7.838;2023-07-13T12:40:51;32.70;58.50
14192;DHT22;7177;48.572;7.838;2023-07-13T12:43:20;32.70;58.40
14192;DHT22;7177;48.572;7.838;2023-07-13T12:46:04;32.50;57.10
14192;DHT22;7177;48.572;7.838;2023-07-13T12:48:37;32.90;57.10
14192;DHT22;7177;48.572;7.838;2023-07-13T12:51:03;33.20;55.50
14192;DHT22;7177;48.572;7.838;2023-07-13T12:53:30;32.80;57.50
14192;DHT22;7177;48.572;7.838;2023-07-13T12:55:58;32.70;54.10
14192;DHT22;7177;48.572;7.838;2023-07-13T12:58:39;32.80;56.20
14192;DHT22;7177;48.572;7.838;2023-07-13T13:01:13;33.00;53.00
14192;DHT22;7177;48.572;7.838;2023-07-13T13:03:44;33.60;53.90
14192;DHT22;7177;48.572;7.838;2023-07-13T13:08:44;34.10;54.80
14192;DHT22;7177;48.572;7.838;2023-07-13T13:11:10;33.70;52.50
14192;DHT22;7177;48.572;7.838;2023-07-13T13:13:36;33.10;53.20
14192;DHT22;7177;48.572;7.838;2023-07-13T13:16:35;33.00;54.00
14192;DHT22;7177;48.572;7.838;2023-07-13T13:19:14;33.50;52.80
14192;DHT22;7177;48.572;7.838;2023-07-13T13:21:41;33.20;51.10
14192;DHT22;7177;48.572;7.838;2023-07-13T13:24:16;33.10;52.00
14192;DHT22;7177;48.572;7.838;2023-07-13T13:26:42;32.10;52.50
14192;DHT22;7177;48.572;7.838;2023-07-13T13:29:16;31.10;55.10
14192;DHT22;7177;48.572;7.838;2023-07-13T13:31:42;30.60;56.00
14192;DHT22;7177;48.572;7.838;2023-07-13T13:34:10;30.30;54.60
14192;DHT22;7177;48.572;7.838;2023-07-13T13:36:36;30.20;56.20
14192;DHT22;7177;48.572;7.838;2023-07-13T13:39:01;30.60;54.40
14192;DHT22;7177;48.572;7.838;2023-07-13T13:41:27;30.70;54.80
14192;DHT22;7177;48.572;7.838;2023-07-13T13:43:53;30.70;56.10
14192;DHT22;7177;48.572;7.838;2023-07-13T13:46:20;30.60;55.70
14192;DHT22;7177;48.572;7.838;2023-07-13T13:48:47;30.50;56.40
14192;DHT22;7177;48.572;7.838;2023-07-13T13:51:19;30.30;57.50
14192;DHT22;7177;48.572;7.838;2023-07-13T13:53:45;29.90;56.00
14192;DHT22;7177;48.572;7.838;2023-07-13T13:56:12;29.50;57.10
14192;DHT22;7177;48.572;7.838;2023-07-13T13:58:38;29.60;57.60
14192;DHT22;7177;48.572;7.838;2023-07-13T14:01:04;29.50;56.20
14192;DHT22;7177;48.572;7.838;2023-07-13T14:03:33;29.20;55.60
14192;DHT22;7177;48.572;7.838;2023-07-13T14:05:59;29.10;57.30
14192;DHT22;7177;48.572;7.838;2023-07-13T14:08:25;29.20;57.60
14192;DHT22;7177;48.572;7.838;2023-07-13T14:10:55;29.40;58.30
14192;DHT22;7177;48.572;7.838;2023-07-13T14:13:32;29.30;59.30
14192;DHT22;7177;48.572;7.838;2023-07-13T14:16:01;29.20;59.00
14192;DHT22;7177;48.572;7.838;2023-07-13T14:18:27;29.00;59.90
14192;DHT22;7177;48.572;7.838;2023-07-13T14:20:53;29.00;59.80
14192;DHT22;7177;48.572;7.838;2023-07-13T14:23:18;29.30;61.00
14192;DHT22;7177;48.572;7.838;2023-07-13T14:25:47;29.30;59.40
14192;DHT22;7177;48.572;7.838;2023-07-13T14:28:26;29.00;57.80
14192;DHT22;7177;48.572;7.838;2023-07-13T14:30:52;28.70;59.40
14192;DHT22;7177;48.572;7.838;2023-07-13T14:33:19;28.30;58.50
14192;DHT22;7177;48.572;7.838;2023-07-13T14:35:45;28.10;58.30
14192;DHT22;7177;48.572;7.838;2023-07-13T14:38:14;28.10;59.50
14192;DHT22;7177;48.572;7.838;2023-07-13T14:40:40;28.40;60.00
14192;DHT22;7177;48.572;7.838;2023-07-13T14:43:10;28.70;60.50
14192;DHT22;7177;48.572;7.838;2023-07-13T14:45:40;29.00;60.30
14192;DHT22;7177;48.572;7.838;2023-07-13T14:48:13;29.00;59.20
14192;DHT22;7177;48.572;7.838;2023-07-13T14:50:40;28.60;59.80
14192;DHT22;7177;48.572;7.838;2023-07-13T14:53:10;28.60;61.90
14192;DHT22;7177;48.572;7.838;2023-07-13T14:55:35;29.30;60.90
14192;DHT22;7177;48.572;7.838;2023-07-13T14:58:01;29.70;58.90
14192;DHT22;7177;48.572;7.838;2023-07-13T15:00:26;29.70;58.20
14192;DHT22;7177;48.572;7.838;2023-07-13T15:02:57;29.40;61.00
14192;DHT22;7177;48.572;7.838;2023-07-13T15:05:32;29.20;60.30
14192;DHT22;7177;48.572;7.838;2023-07-13T15:08:03;29.00;60.20
14192;DHT22;7177;48.572;7.838;2023-07-13T15:10:32;28.70;59.40
14192;DHT22;7177;48.572;7.838;2023-07-13T15:13:00;28.50;59.90
14192;DHT22;7177;48.572;7.838;2023-07-13T15:15:28;28.50;60.10
14192;DHT22;7177;48.572;7.838;2023-07-13T15:17:54;28.60;60.10
14192;DHT22;7177;48.572;7.838;2023-07-13T15:22:52;29.30;60.00
14192;DHT22;7177;48.572;7.838;2023-07-13T15:25:20;29.40;60.20
14192;DHT22;7177;48.572;7.838;2023-07-13T15:27:45;29.60;59.70
14192;DHT22;7177;48.572;7.838;2023-07-13T15:30:12;29.90;58.40
14192;DHT22;7177;48.572;7.838;2023-07-13T15:32:37;29.80;58.50
14192;DHT22;7177;48.572;7.838;2023-07-13T15:35:05;29.50;59.70
14192;DHT22;7177;48.572;7.838;2023-07-13T15:37:30;29.50;60.40
14192;DHT22;7177;48.572;7.838;2023-07-13T15:39:56;29.60;59.60
14192;DHT22;7177;48.572;7.838;2023-07-13T15:42:23;29.40;59.40
14192;DHT22;7177;48.572;7.838;2023-07-13T15:44:49;29.10;60.10
14192;DHT22;7177;48.572;7.838;2023-07-13T15:47:15;29.20;61.00
14192;DHT22;7177;48.572;7.838;2023-07-13T15:49:41;29.00;60.40
14192;DHT22;7177;48.572;7.838;2023-07-13T15:52:25;28.80;60.30
14192;DHT22;7177;48.572;7.838;2023-07-13T15:54:52;28.50;60.80
14192;DHT22;7177;48.572;7.838;2023-07-13T15:57:18;28.40;61.80
14192;DHT22;7177;48.572;7.838;2023-07-13T15:59:44;28.30;62.20
14192;DHT22;7177;48.572;7.838;2023-07-13T16:02:17;28.30;62.80
14192;DHT22;7177;48.572;7.838;2023-07-13T16:04:43;28.40;61.60
14192;DHT22;7177;48.572;7.838;2023-07-13T16:07:13;28.00;59.40
14192;DHT22;7177;48.572;7.838;2023-07-13T16:09:40;27.90;61.10
14192;DHT22;7177;48.572;7.838;2023-07-13T16:12:13;27.60;61.70
14192;DHT22;7177;48.572;7.838;2023-07-13T16:14:40;27.60;62.70
14192;DHT22;7177;48.572;7.838;2023-07-13T16:17:10;27.60;62.50
14192;DHT22;7177;48.572;7.838;2023-07-13T16:19:35;28.00;61.50
14192;DHT22;7177;48.572;7.838;2023-07-13T16:22:02;28.60;61.30
14192;DHT22;7177;48.572;7.838;2023-07-13T16:24:31;29.10;60.80
14192;DHT22;7177;48.572;7.838;2023-07-13T16:26:57;29.50;59.70
14192;DHT22;7177;48.572;7.838;2023-07-13T16:29:25;29.50;59.10
14192;DHT22;7177;48.572;7.838;2023-07-13T16:34:28;29.20;59.70
14192;DHT22;7177;48.572;7.838;2023-07-13T16:36:54;29.00;60.60
14192;DHT22;7177;48.572;7.838;2023-07-13T16:39:20;28.70;60.00
14192;DHT22;7177;48.572;7.838;2023-07-13T16:41:48;28.50;61.10
14192;DHT22;7177;48.572;7.838;2023-07-13T16:44:17;28.10;62.80
14192;DHT22;7177;48.572;7.838;2023-07-13T16:46:44;27.90;64.50
14192;DHT22;7177;48.572;7.838;2023-07-13T16:49:32;27.70;64.10
14192;DHT22;7177;48.572;7.838;2023-07-13T16:51:59;27.50;64.60
14192;DHT22;7177;48.572;7.838;2023-07-13T16:54:28;27.50;65.60
14192;DHT22;7177;48.572;7.838;2023-07-13T16:56:56;27.50;64.40
14192;DHT22;7177;48.572;7.838;2023-07-13T16:59:31;27.40;65.00
14192;DHT22;7177;48.572;7.838;2023-07-13T17:01:58;27.30;64.80
14192;DHT22;7177;48.572;7.838;2023-07-13T17:04:25;27.30;65.10
14192;DHT22;7177;48.572;7.838;2023-07-13T17:06:53;27.40;67.00
14192;DHT22;7177;48.572;7.838;2023-07-13T17:09:21;27.40;65.10